Time;durP1;ratioP1;P1;durP2;ratioP2;P2;SDS_P1;SDS_P2;PMS_P1;PMS_P2;Temp;Humidity;BMP_temperature;BMP_pressure;BME280_temperature;BME280_humidity;BME280_pressure;Samples;Min_cycle;Max_cycle;Signal;HPM_P1;HPM_P2
2023/09/07 00:00:42;;;;;;;;;12.00;12.00;;;;;26.79;54.02;100824.00;4886346;29;44817;-86
2023/09/07 00:03:08;;;;;;;;;18.00;13.00;;;;;26.76;53.78;100823.28;4886333;29;45535;-85
2023/09/07 00:05:33;;;;;;;;;12.00;12.00;;;;;26.71;53.98;100823.53;4886908;29;45297;-85
2023/09/07 00:07:59;;;;;;;;;11.00;11.00;;;;;26.68;53.57;100815.47;4888413;29;45297;-85
2023/09/07 00:10:26;;;;;;;;;13.00;12.00;;;;;26.76;53.98;100817.81;4871752;29;45596;-85
2023/09/07 00:12:51;;;;;;;;;11.00;11.00;;;;;26.67;53.39;100813.72;4885978;29;44908;-85
2023/09/07 00:15:19;;;;;;;;;13.00;13.00;;;;;26.61;54.53;100814.06;4885797;28;45994;-84
2023/09/07 00:17:44;;;;;;;;;11.00;11.00;;;;;26.64;54.55;100812.06;4869347;29;45484;-83
2023/09/07 00:20:10;;;;;;;;;11.33;11.33;;;;;26.59;54.13;100813.25;4870685;29;45481;-84
2023/09/07 00:22:36;;;;;;;;;13.33;12.33;;;;;26.61;54.52;100816.78;4870964;29;44897;-85
2023/09/07 00:25:04;;;;;;;;;11.00;11.00;;;;;26.57;54.51;100812.41;4870813;29;47034;-84
2023/09/07 00:27:30;;;;;;;;;15.33;14.00;;;;;26.59;54.26;100815.97;4871673;29;45256;-85
2023/09/07 00:29:55;;;;;;;;;12.67;12.67;;;;;26.59;54.43;100821.44;4890384;29;45384;-86
2023/09/07 00:32:20;;;;;;;;;15.00;15.00;;;;;26.58;54.07;100816.91;4889665;29;44929;-85
2023/09/07 00:34:46;;;;;;;;;13.33;13.33;;;;;26.57;54.44;100826.06;4890344;29;45250;-86
2023/09/07 00:37:12;;;;;;;;;12.67;12.67;;;;;26.54;54.49;100824.34;4889787;29;44908;-85
2023/09/07 00:39:37;;;;;;;;;12.67;12.67;;;;;26.43;54.26;100814.00;4888586;29;45459;-85
2023/09/07 00:42:03;;;;;;;;;16.00;15.33;;;;;26.45;54.63;100820.25;4877901;29;44836;-86
2023/09/07 00:44:29;;;;;;;;;11.67;10.67;;;;;26.34;55.16;100812.63;4894343;28;45225;-84
2023/09/07 00:46:56;;;;;;;;;11.33;10.67;;;;;26.40;54.87;100814.16;4872948;29;45462;-84
2023/09/07 00:49:24;;;;;;;;;13.00;13.00;;;;;26.32;55.15;100811.81;4889255;29;45410;-85
2023/09/07 00:51:50;;;;;;;;;14.67;14.67;;;;;26.12;55.84;100803.75;4889413;28;45372;-85
2023/09/07 00:54:16;;;;;;;;;14.33;14.33;;;;;26.09;55.53;100799.31;4873015;29;48111;-84
2023/09/07 00:56:41;;;;;;;;;13.00;12.67;;;;;26.04;56.46;100804.13;4887910;28;45495;-85
2023/09/07 00:59:07;;;;;;;;;13.33;13.33;;;;;26.02;56.24;100800.59;4871591;29;45527;-84
2023/09/07 01:01:35;;;;;;;;;15.00;15.00;;;;;26.02;56.61;100808.78;4887783;28;44882;-84
2023/09/07 01:04:01;;;;;;;;;15.00;13.67;;;;;25.86;56.67;100803.16;4871125;29;47302;-84
2023/09/07 01:06:35;;;;;;;;;12.67;11.33;;;;;26.01;56.40;100803.41;4889082;28;45411;-83
2023/09/07 01:09:07;;;;;;;;;15.00;15.00;;;;;26.00;56.45;100801.66;4886928;29;45425;-84
2023/09/07 01:11:37;;;;;;;;;14.00;12.00;;;;;25.98;56.69;100799.00;4886476;29;44808;-85
2023/09/07 01:17:25;;;;;;;;;12.67;11.33;;;;;25.87;57.26;100790.41;4893514;28;44837;-85
2023/09/07 01:19:52;;;;;;;;;13.67;13.00;;;;;25.92;56.50;100799.28;4890908;28;44856;-84
2023/09/07 01:22:22;;;;;;;;;14.00;13.67;;;;;25.87;57.01;100791.28;4888110;28;45398;-84
2023/09/07 01:24:50;;;;;;;;;12.67;12.00;;;;;25.84;56.90;100796.91;4886840;28;46302;-85
2023/09/07 01:30:38;;;;;;;;;15.33;14.00;;;;;25.71;57.33;100802.06;4887921;29;45475;-84
2023/09/07 01:33:08;;;;;;;;;15.67;15.67;;;;;25.75;57.79;100798.25;4887603;29;45214;-85
2023/09/07 01:35:36;;;;;;;;;17.67;14.00;;;;;25.61;57.98;100798.03;4886972;29;47145;-85
2023/09/07 01:38:01;;;;;;;;;13.33;13.33;;;;;25.47;58.27;100803.22;4871320;29;45412;-84
2023/09/07 01:40:28;;;;;;;;;14.00;12.33;;;;;25.44;58.68;100798.81;4872544;29;44923;-85
2023/09/07 01:42:53;;;;;;;;;13.00;13.00;;;;;25.27;58.69;100794.16;4890405;28;45463;-84
2023/09/07 01:45:20;;;;;;;;;15.00;15.00;;;;;25.24;58.92;100801.56;4888320;28;46866;-85
2023/09/07 01:47:45;;;;;;;;;17.67;16.00;;;;;25.20;59.01;100800.78;4888965;28;45023;-84
2023/09/07 01:50:14;;;;;;;;;14.67;13.00;;;;;25.17;59.16;100806.38;4890384;29;44772;-85
2023/09/07 01:52:39;;;;;;;;;15.00;15.00;;;;;25.13;59.44;100800.19;4889784;28;44946;-85
2023/09/07 01:55:05;;;;;;;;;15.33;14.33;;;;;25.09;59.41;100797.69;4873160;28;46756;-83
2023/09/07 01:57:31;;;;;;;;;14.00;13.33;;;;;25.06;59.58;100805.97;4888879;29;44890;-84
2023/09/07 01:59:58;;;;;;;;;14.00;13.00;;;;;25.04;59.65;100805.16;4888730;28;45512;-84
2023/09/07 02:02:23;;;;;;;;;15.33;13.00;;;;;24.92;59.68;100801.16;4889028;28;45858;-84
2023/09/07 02:04:50;;;;;;;;;10.67;10.00;;;;;24.94;59.94;100797.44;4888935;28;47424;-85
2023/09/07 02:07:15;;;;;;;;;14.00;14.00;;;;;24.83;60.24;100797.03;4890223;28;45479;-85
2023/09/07 02:09:42;;;;;;;;;12.67;11.00;;;;;24.81;60.54;100793.50;4890507;28;45369;-86
2023/09/07 02:12:07;;;;;;;;;12.33;12.33;;;;;24.78;60.54;100788.16;4876030;29;44819;-85
2023/09/07 02:14:33;;;;;;;;;13.67;13.67;;;;;24.71;60.50;100786.69;4874064;29;46937;-86
2023/09/07 02:16:58;;;;;;;;;15.00;15.00;;;;;24.70;60.61;100793.06;4892080;28;45397;-86
2023/09/07 02:19:24;;;;;;;;;16.00;15.67;;;;;24.68;60.46;100792.25;4874995;29;45478;-86
2023/09/07 02:21:52;;;;;;;;;15.67;14.33;;;;;24.63;60.78;100791.59;4890146;28;44791;-85
2023/09/07 02:24:18;;;;;;;;;14.00;12.00;;;;;24.60;61.00;100794.41;4890517;28;45183;-86
2023/09/07 02:26:45;;;;;;;;;14.33;14.33;;;;;24.62;60.77;100798.88;4890463;29;45436;-86
2023/09/07 02:29:13;;;;;;;;;14.00;12.33;;;;;24.70;60.87;100788.53;4890498;28;45634;-85
2023/09/07 02:31:40;;;;;;;;;17.00;15.33;;;;;24.62;60.93;100797.94;4891603;28;45291;-86
2023/09/07 02:34:05;;;;;;;;;15.33;12.33;;;;;24.62;60.92;100800.69;4888882;28;47213;-84
2023/09/07 02:36:31;;;;;;;;;14.00;13.00;;;;;24.60;61.32;100794.41;4889843;28;45613;-84
2023/09/07 02:38:57;;;;;;;;;14.00;14.00;;;;;24.55;61.77;100790.06;4875804;28;44807;-86
2023/09/07 02:41:22;;;;;;;;;15.00;15.00;;;;;24.49;61.71;100787.59;4890287;28;44852;-85
2023/09/07 02:43:48;;;;;;;;;11.33;11.00;;;;;24.44;61.55;100789.63;4890288;28;46169;-85
2023/09/07 02:46:13;;;;;;;;;13.00;13.00;;;;;24.41;61.75;100792.47;4887653;28;44795;-86
2023/09/07 02:48:39;;;;;;;;;13.33;12.00;;;;;24.37;62.03;100796.25;4890009;28;44786;-85
2023/09/07 02:51:05;;;;;;;;;16.00;13.67;;;;;24.36;62.34;100799.94;4890238;28;44880;-85
2023/09/07 02:53:30;;;;;;;;;14.00;13.67;;;;;24.30;62.58;100790.22;4889652;28;45125;-85
2023/09/07 02:55:56;;;;;;;;;13.00;13.00;;;;;24.27;62.11;100794.88;4890863;28;45348;-85
2023/09/07 02:58:22;;;;;;;;;13.67;13.67;;;;;24.19;62.05;100778.03;4873084;29;45405;-84
2023/09/07 03:00:49;;;;;;;;;11.67;11.00;;;;;24.16;62.39;100788.06;4889014;28;45308;-85
2023/09/07 03:03:15;;;;;;;;;15.67;13.33;;;;;24.11;62.85;100795.50;4874381;29;47214;-86
2023/09/07 03:05:42;;;;;;;;;16.00;14.00;;;;;24.11;62.97;100789.19;4892866;28;45519;-84
2023/09/07 03:08:09;;;;;;;;;14.00;14.00;;;;;24.08;63.04;100790.22;4875816;29;45422;-87
2023/09/07 03:10:39;;;;;;;;;14.00;14.00;;;;;24.20;63.10;100791.56;4890791;28;45019;-86
2023/09/07 03:13:05;;;;;;;;;14.67;14.00;;;;;24.09;62.96;100791.09;4872718;29;47124;-85
2023/09/07 03:15:35;;;;;;;;;13.33;13.33;;;;;24.07;63.51;100784.84;4873185;29;44857;-86
2023/09/07 03:18:01;;;;;;;;;14.67;12.67;;;;;24.00;62.99;100781.50;4888767;28;45497;-86
2023/09/07 03:20:26;;;;;;;;;15.33;14.33;;;;;23.96;63.30;100788.00;4889406;28;45509;-85
2023/09/07 03:22:51;;;;;;;;;13.00;11.67;;;;;23.95;63.34;100787.09;4872182;29;47119;-87
2023/09/07 03:25:17;;;;;;;;;14.00;13.00;;;;;23.89;63.59;100776.50;4887612;28;45372;-86
2023/09/07 03:27:43;;;;;;;;;14.00;13.00;;;;;23.87;63.12;100786.53;4887445;28;44796;-85
2023/09/07 03:30:09;;;;;;;;;13.67;13.67;;;;;23.90;63.39;100777.41;4869786;29;44898;-85
2023/09/07 03:32:35;;;;;;;;;11.67;11.67;;;;;23.76;63.09;100769.78;4869199;29;47133;-85
2023/09/07 03:35:10;;;;;;;;;13.00;11.00;;;;;23.80;63.70;100776.00;4887557;28;45812;-86
2023/09/07 03:37:37;;;;;;;;;14.00;13.33;;;;;23.78;63.78;100778.78;4887974;28;45314;-85
2023/09/07 03:40:05;;;;;;;;;16.33;16.00;;;;;23.74;63.81;100772.53;4890357;28;44769;-86
2023/09/07 03:42:30;;;;;;;;;13.67;13.67;;;;;23.68;63.82;100771.91;4889796;28;47961;-85
2023/09/07 03:44:56;;;;;;;;;15.00;15.00;;;;;23.66;63.77;100773.81;4873668;29;45470;-85
2023/09/07 03:47:21;;;;;;;;;15.33;15.33;;;;;23.57;64.49;100769.59;4874045;29;44829;-85
2023/09/07 03:49:47;;;;;;;;;14.67;13.00;;;;;23.50;64.37;100774.41;4890308;28;45364;-84
2023/09/07 03:52:12;;;;;;;;;10.67;10.67;;;;;23.53;64.63;100782.44;4889155;28;46507;-85
2023/09/07 03:54:39;;;;;;;;;13.67;13.67;;;;;23.58;64.52;100787.69;4889680;28;45357;-84
2023/09/07 03:57:05;;;;;;;;;15.67;13.67;;;;;23.45;64.42;100778.22;4873040;29;44742;-84
2023/09/07 03:59:30;;;;;;;;;14.00;14.00;;;;;23.47;65.03;100788.09;4876130;29;44908;-84
2023/09/07 04:01:56;;;;;;;;;13.00;13.00;;;;;23.48;64.69;100780.84;4878549;29;47305;-84
2023/09/07 04:04:21;;;;;;;;;14.67;12.67;;;;;23.41;65.08;100782.91;4893344;28;45401;-82
2023/09/07 04:06:55;;;;;;;;;13.00;13.00;;;;;23.57;64.87;100785.88;4876167;29;45257;-84
2023/09/07 04:09:20;;;;;;;;;13.33;13.33;;;;;23.41;65.45;100784.72;4894404;28;44726;-86
2023/09/07 04:11:45;;;;;;;;;13.67;13.67;;;;;23.35;65.38;100783.16;4893611;28;45422;-85
2023/09/07 04:14:11;;;;;;;;;12.33;12.33;;;;;23.34;65.31;100784.97;4892982;28;45444;-84
2023/09/07 04:16:37;;;;;;;;;15.00;15.00;;;;;23.35;65.54;100781.31;4876357;28;45539;-84
2023/09/07 04:19:09;;;;;;;;;6.00;4.67;;;;;23.32;65.44;100784.13;4889371;28;44985;-84
2023/09/07 04:21:36;;;;;;;;;11.67;11.67;;;;;23.35;66.05;100785.88;4891260;29;47065;-84
2023/09/07 04:24:05;;;;;;;;;13.33;12.33;;;;;23.42;65.52;100786.50;4873876;29;45026;-85
2023/09/07 04:26:30;;;;;;;;;15.33;14.00;;;;;23.30;66.06;100780.59;4877141;29;45523;-86
2023/09/07 04:32:17;;;;;;;;;14.33;12.67;;;;;23.33;65.76;100783.22;4893133;29;45419;-85
2023/09/07 04:34:46;;;;;;;;;14.67;13.67;;;;;23.43;65.70;100782.84;4877032;28;45180;-85
2023/09/07 04:37:13;;;;;;;;;12.00;12.00;;;;;23.25;66.04;100785.34;4892493;28;44826;-85
2023/09/07 04:39:40;;;;;;;;;13.00;13.00;;;;;23.32;66.06;100780.53;4890740;28;45411;-85
2023/09/07 04:45:27;;;;;;;;;14.00;14.00;;;;;23.16;66.37;100782.94;4889923;28;45386;-84
2023/09/07 04:47:52;;;;;;;;;15.33;14.00;;;;;23.15;66.39;100779.34;4873777;29;45379;-85
2023/09/07 04:50:18;;;;;;;;;14.00;13.67;;;;;23.12;66.65;100784.00;4890850;28;45365;-85
2023/09/07 04:52:44;;;;;;;;;15.00;14.00;;;;;23.21;66.48;100783.69;4889800;28;45196;-84
2023/09/07 04:55:13;;;;;;;;;10.67;10.67;;;;;23.09;66.67;100789.56;4889775;28;44814;-84
2023/09/07 04:57:38;;;;;;;;;14.00;14.00;;;;;23.08;66.64;100785.06;4871904;28;44853;-86
2023/09/07 05:00:07;;;;;;;;;10.33;10.33;;;;;23.21;66.41;100790.91;4887296;29;45356;-85
2023/09/07 05:02:40;;;;;;;;;15.00;14.00;;;;;23.28;66.31;100790.63;4869641;29;45510;-84
2023/09/07 05:05:06;;;;;;;;;16.00;14.33;;;;;23.22;66.65;100801.72;4870354;29;44944;-84
2023/09/07 05:08:16;;;;;;;;;14.00;13.00;;;;;23.34;66.79;100801.25;4873154;29;45413;-85
2023/09/07 05:10:42;;;;;;;;;13.00;12.67;;;;;23.03;66.36;100782.53;4873141;28;45695;-84
2023/09/07 05:13:07;;;;;;;;;16.33;15.00;;;;;23.11;66.89;100812.97;4888792;28;45318;-84
2023/09/07 05:15:33;;;;;;;;;12.00;12.00;;;;;23.06;66.91;100803.22;4887997;29;45420;-84
2023/09/07 05:18:01;;;;;;;;;15.33;13.33;;;;;23.10;66.63;100811.19;4872556;29;45360;-84
2023/09/07 05:20:30;;;;;;;;;15.33;15.33;;;;;23.17;67.28;100798.31;4889136;28;45372;-84
2023/09/07 05:22:56;;;;;;;;;16.33;14.33;;;;;23.03;67.28;100806.06;4893636;28;45385;-84
2023/09/07 05:25:22;;;;;;;;;15.00;15.00;;;;;22.97;67.29;100807.13;4873787;29;45340;-84
2023/09/07 05:27:48;;;;;;;;;10.67;8.00;;;;;22.99;67.42;100815.22;4889250;28;45480;-85
2023/09/07 05:30:14;;;;;;;;;12.00;12.00;;;;;22.88;67.63;100805.63;4890893;28;45385;-84
2023/09/07 05:32:41;;;;;;;;;12.00;12.00;;;;;22.87;67.50;100812.00;4872834;29;46860;-84
2023/09/07 05:35:11;;;;;;;;;16.00;14.33;;;;;23.03;67.16;100811.50;4889747;28;45400;-84
2023/09/07 05:37:37;;;;;;;;;13.00;13.00;;;;;22.93;67.89;100811.78;4889784;28;44919;-85
2023/09/07 05:40:03;;;;;;;;;15.00;14.00;;;;;22.93;67.42;100816.31;4889459;28;45505;-84
2023/09/07 05:42:29;;;;;;;;;16.00;15.00;;;;;22.90;67.51;100803.75;4888992;28;47220;-85
2023/09/07 05:44:56;;;;;;;;;17.33;15.00;;;;;23.12;67.20;100819.28;4889749;29;44936;-83
2023/09/07 05:47:21;;;;;;;;;17.33;16.00;;;;;23.09;67.18;100811.25;4893869;29;44837;-84
2023/09/07 05:49:48;;;;;;;;;15.00;13.00;;;;;23.27;67.01;100810.56;4893994;29;44956;-84
2023/09/07 05:52:15;;;;;;;;;14.00;14.00;;;;;23.33;67.04;100813.06;4893072;29;47125;-85
2023/09/07 05:54:41;;;;;;;;;18.00;15.67;;;;;23.28;67.34;100811.47;4878768;29;45046;-85
2023/09/07 05:57:09;;;;;;;;;17.33;15.00;;;;;23.35;66.99;100819.31;4894113;29;44769;-85
2023/09/07 05:59:34;;;;;;;;;14.00;13.67;;;;;23.38;67.15;100809.28;4895509;28;44932;-85
2023/09/07 06:02:03;;;;;;;;;17.67;16.33;;;;;23.58;66.80;100819.38;4875766;28;47332;-85
2023/09/07 06:04:29;;;;;;;;;16.33;15.67;;;;;23.48;66.67;100814.28;4892258;29;44753;-85
2023/09/07 06:06:55;;;;;;;;;14.00;14.00;;;;;23.47;66.93;100806.19;4893577;28;45423;-85
2023/09/07 06:09:20;;;;;;;;;18.33;16.33;;;;;23.59;66.57;100811.16;4896687;28;44738;-85
2023/09/07 06:11:46;;;;;;;;;20.33;18.00;;;;;23.79;66.18;100823.09;4892708;29;47547;-86
2023/09/07 06:14:11;;;;;;;;;15.67;15.67;;;;;23.90;65.70;100823.56;4894463;28;44914;-85
2023/09/07 06:16:37;;;;;;;;;18.00;16.00;;;;;23.89;65.43;100808.22;4892546;28;45502;-84
2023/09/07 06:19:02;;;;;;;;;19.33;19.33;;;;;24.07;65.73;100823.75;4876786;29;45558;-84
2023/09/07 06:21:28;;;;;;;;;17.67;17.33;;;;;24.16;65.40;100828.84;4894668;28;45188;-85
2023/09/07 06:23:53;;;;;;;;;18.67;18.00;;;;;24.22;65.51;100827.69;4897547;28;44769;-82
2023/09/07 06:26:21;;;;;;;;;19.33;18.67;;;;;24.22;65.33;100818.63;4899293;28;45893;-84
2023/09/07 06:28:47;;;;;;;;;17.67;17.33;;;;;24.25;65.25;100822.13;4900537;28;44760;-83
2023/09/07 06:31:12;;;;;;;;;14.67;14.67;;;;;24.29;64.86;100823.75;4898667;28;45253;-83
2023/09/07 06:33:38;;;;;;;;;17.00;17.00;;;;;24.27;64.53;100819.34;4895636;29;44791;-84
2023/09/07 06:36:03;;;;;;;;;17.00;16.00;;;;;24.37;63.73;100820.72;4896567;28;45084;-84
2023/09/07 06:38:31;;;;;;;;;18.00;17.33;;;;;24.48;63.41;100818.44;4900031;28;44696;-84
2023/09/07 06:40:57;;;;;;;;;18.00;18.00;;;;;24.58;63.68;100823.50;4897858;28;45469;-83
2023/09/07 06:43:22;;;;;;;;;21.67;19.67;;;;;24.66;63.21;100822.25;4882300;28;45015;-83
2023/09/07 06:45:51;;;;;;;;;18.00;18.00;;;;;24.86;62.77;100817.75;4899071;28;44934;-83
2023/09/07 06:48:17;;;;;;;;;17.00;15.67;;;;;24.81;62.81;100812.53;4896479;28;44851;-83
2023/09/07 06:50:42;;;;;;;;;20.33;18.67;;;;;24.97;62.13;100811.84;4893838;29;47266;-84
2023/09/07 06:53:08;;;;;;;;;17.00;15.33;;;;;25.07;61.95;100813.22;4896017;28;44714;-83
2023/09/07 06:55:33;;;;;;;;;19.67;17.67;;;;;25.21;61.88;100824.38;4880256;29;44875;-84
2023/09/07 06:58:01;;;;;;;;;19.33;16.00;;;;;25.20;60.83;100821.69;4896541;28;44743;-84
2023/09/07 07:00:30;;;;;;;;;19.00;19.00;;;;;25.18;59.85;100823.59;4896772;28;45463;-84
2023/09/07 07:02:55;;;;;;;;;17.00;16.67;;;;;25.18;59.84;100824.47;4897917;28;44910;-84
2023/09/07 07:08:42;;;;;;;;;15.00;15.00;;;;;25.29;59.28;100838.53;4893832;28;45073;-83
2023/09/07 07:11:08;;;;;;;;;15.67;14.33;;;;;25.37;59.23;100829.09;4893391;29;45463;-83
2023/09/07 07:13:33;;;;;;;;;18.00;17.00;;;;;25.38;58.77;100823.59;4900918;28;45000;-84
2023/09/07 07:16:06;;;;;;;;;15.00;15.00;;;;;25.52;58.18;100818.38;4896453;28;45149;-84
2023/09/07 07:18:32;;;;;;;;;19.33;18.33;;;;;25.68;57.73;100823.13;4893902;29;45313;-83
2023/09/07 07:21:00;;;;;;;;;17.33;17.33;;;;;25.81;57.67;100807.06;4875228;29;45103;-83
2023/09/07 07:26:06;;;;;;;;;19.67;18.67;;;;;25.93;56.55;100822.84;4911195;28;44922;-82
2023/09/07 07:28:35;;;;;;;;;19.00;18.00;;;;;25.92;56.85;100810.19;4911555;28;44785;-83
2023/09/07 07:31:11;;;;;;;;;18.67;16.67;;;;;26.05;57.15;100818.63;4908883;28;45446;-82
2023/09/07 07:33:37;;;;;;;;;21.33;20.00;;;;;25.95;56.63;100818.19;4892047;29;44721;-83
2023/09/07 07:36:23;;;;;;;;;17.33;17.00;;;;;26.09;56.27;100818.41;4914399;28;44850;-84
2023/09/07 07:38:54;;;;;;;;;18.33;18.00;;;;;26.20;56.23;100819.72;4906115;28;44864;-82
2023/09/07 07:41:23;;;;;;;;;18.00;17.00;;;;;26.29;56.23;100831.03;4891154;29;46186;-82
2023/09/07 07:44:00;;;;;;;;;19.67;17.00;;;;;26.35;56.75;100818.94;4912172;28;44765;-83
2023/09/07 07:46:29;;;;;;;;;21.67;21.33;;;;;26.42;55.38;100819.50;4888691;29;45290;-83
2023/09/07 07:48:55;;;;;;;;;17.67;17.67;;;;;26.49;55.24;100816.41;4891982;29;44894;-83
2023/09/07 07:51:20;;;;;;;;;18.00;17.67;;;;;26.56;54.67;100819.69;4885383;29;47829;-81
2023/09/07 07:53:50;;;;;;;;;20.00;17.00;;;;;26.78;54.96;100827.69;4897566;29;44868;-82
2023/09/07 08:06:19;;;;;;;;;17.67;17.00;;;;;27.26;53.34;100834.25;4875422;29;44866;-83
2023/09/07 08:09:00;;;;;;;;;16.67;14.00;;;;;26.98;54.02;100809.38;4880270;29;44823;-84
2023/09/07 08:11:57;;;;;;;;;16.00;16.00;;;;;27.16;53.89;100807.50;4853496;29;45469;-85
2023/09/07 08:14:49;;;;;;;;;17.00;17.00;;;;;27.23;53.49;100806.19;4865894;29;47108;-85
2023/09/07 08:18:14;;;;;;;;;15.67;15.67;;;;;27.51;52.81;100830.19;4891484;28;44796;-83
2023/09/07 08:20:41;;;;;;;;;18.33;17.33;;;;;27.30;52.91;100808.53;4892720;28;44927;-82
2023/09/07 08:23:11;;;;;;;;;16.33;16.33;;;;;27.07;53.19;100782.47;4882797;29;44805;-83
2023/09/07 08:25:38;;;;;;;;;16.67;16.67;;;;;27.44;52.78;100831.50;4893120;29;46695;-85
2023/09/07 08:28:25;;;;;;;;;22.33;19.67;;;;;27.70;52.41;100825.47;4884979;29;44829;-84
2023/09/07 08:36:33;;;;;;;;;23.67;21.33;;;;;27.57;52.79;100799.81;5247448;23;46943;-83
2023/09/07 08:39:46;;;;;;;;;15.33;15.33;;;;;27.90;52.11;100823.50;4881307;29;45081;-84
2023/09/07 08:48:35;;;;;;;;;15.33;15.33;;;;;27.83;51.83;100805.63;4798459;29;44872;-83
2023/09/07 08:51:41;;;;;;;;;16.67;16.67;;;;;27.91;51.27;100815.22;4790458;29;44758;-83
2023/09/07 08:54:15;;;;;;;;;15.33;15.33;;;;;27.67;51.11;100806.53;4795064;29;44899;-83
2023/09/07 08:57:02;;;;;;;;;18.33;16.67;;;;;27.92;51.67;100799.69;4820929;29;44929;-82
2023/09/07 08:59:42;;;;;;;;;16.00;15.00;;;;;27.88;51.64;100798.97;4846760;29;45273;-84
2023/09/07 09:02:44;;;;;;;;;;;;;;;;;;;;;
2023/09/07 09:05:26;;;;;;;;;13.33;13.33;;;;;28.06;50.71;100788.81;4902055;29;67994;-84
2023/09/07 09:10:33;;;;;;;;;15.67;14.33;;;;;28.27;50.64;100785.78;4900782;23;45039;-83
2023/09/07 09:29:11;;;;;;;;;13.67;13.67;;;;;28.62;49.92;100805.63;5097548;23;45190;-84
2023/09/07 10:19:50;;;;;;;;;;;;;;;;;;;;;
2023/09/07 10:22:49;;;;;;;;;13.33;12.00;;;;;29.37;47.40;100763.56;4896537;29;67983;-86
2023/09/07 10:31:23;;;;;;;;;;;;;;;;;;;;;
2023/09/07 10:37:50;;;;;;;;;;;;;;;;;;;;;
2023/09/07 10:40:26;;;;;;;;;15.33;15.33;;;;;29.97;46.54;100795.34;4802012;29;74388;-82
2023/09/07 10:52:57;;;;;;;;;15.33;15.33;;;;;30.17;46.31;100785.78;5450740;23;46355;-83
2023/09/07 10:56:25;;;;;;;;;;;;;;;;;;;;;
2023/09/07 10:59:05;;;;;;;;;15.67;15.67;;;;;29.96;45.95;100738.75;4828886;29;44931;-83
2023/09/07 11:02:06;;;;;;;;;18.33;18.33;;;;;30.15;45.79;100758.44;4838823;29;44911;-83
2023/09/07 11:10:53;;;;;;;;;18.33;15.33;;;;;30.52;45.44;100772.41;4928082;23;44927;-86
2023/09/07 11:17:21;;;;;;;;;;;;;;;;;;;;;
2023/09/07 11:20:03;;;;;;;;;18.33;18.33;;;;;30.80;44.87;100774.09;4933819;28;72134;-87
2023/09/07 11:22:38;;;;;;;;;14.67;14.67;;;;;30.68;45.08;100769.47;4869785;29;44905;-84
2023/09/07 11:25:08;;;;;;;;;15.67;15.00;;;;;30.66;45.19;100755.88;4913055;28;44803;-88
2023/09/07 11:28:04;;;;;;;;;16.33;16.00;;;;;30.94;43.63;100769.53;4901089;29;45901;-87
2023/09/07 11:31:21;;;;;;;;;21.33;19.00;;;;;30.97;44.68;100767.47;4891028;29;45457;-87
2023/09/07 11:33:48;;;;;;;;;18.67;18.67;;;;;30.67;44.95;100737.53;4892021;29;44941;-87
2023/09/07 11:36:15;;;;;;;;;18.67;18.67;;;;;30.75;44.88;100740.63;4888943;29;44859;-86
2023/09/07 11:39:11;;;;;;;;;17.33;17.33;;;;;31.02;45.17;100756.16;4872694;29;45072;-86
2023/09/07 11:45:51;;;;;;;;;20.33;18.33;;;;;31.08;44.04;100720.00;4885488;29;44776;-86
2023/09/07 11:48:23;;;;;;;;;13.33;11.67;;;;;31.08;44.06;100751.06;4875306;29;45305;-85
2023/09/07 11:51:22;;;;;;;;;17.33;17.33;;;;;31.17;44.35;100746.81;4891785;28;45421;-85
2023/09/07 13:45:54;;;;;;;;;21.00;19.33;;;;;32.34;41.17;100685.84;5029130;23;45597;-86
2023/09/07 13:48:20;;;;;;;;;19.67;18.00;;;;;32.36;41.59;100689.34;4879798;28;44849;-83
2023/09/07 13:50:45;;;;;;;;;19.00;19.00;;;;;32.42;41.33;100690.72;4873883;29;46132;-83
2023/09/07 13:53:28;;;;;;;;;18.67;18.67;;;;;32.59;41.14;100687.56;4861478;29;46911;-85
2023/09/07 13:55:57;;;;;;;;;18.67;18.00;;;;;32.58;41.01;100687.66;4871467;29;44889;-84
2023/09/07 13:59:18;;;;;;;;;18.00;18.00;;;;;32.67;41.33;100678.69;4873610;28;44835;-84
2023/09/07 14:01:43;;;;;;;;;19.33;19.33;;;;;32.44;40.65;100675.84;4872152;29;44975;-86
2023/09/07 14:04:46;;;;;;;;;23.33;23.00;;;;;32.72;40.31;100681.06;4879101;29;45475;-84
2023/09/07 14:07:34;;;;;;;;;20.00;20.00;;;;;32.74;40.63;100674.41;4874417;29;44946;-85
2023/09/07 14:10:26;;;;;;;;;20.33;18.33;;;;;33.01;40.42;100667.69;4871770;29;44857;-83
2023/09/07 14:13:00;;;;;;;;;17.67;16.67;;;;;34.43;39.07;100674.13;4858279;29;44950;-83
2023/09/07 14:15:39;;;;;;;;;17.67;17.67;;;;;37.45;36.33;100668.09;4880760;29;46918;-83
2023/09/07 14:18:25;;;;;;;;;21.00;20.67;;;;;39.92;34.70;100660.53;4880631;29;44799;-84
2023/09/07 14:21:10;;;;;;;;;18.00;18.00;;;;;40.55;32.38;100666.47;4888814;28;45007;-84
2023/09/07 14:26:21;;;;;;;;;20.00;20.00;;;;;37.44;33.00;100660.78;4795016;26;45284;-82
2023/09/07 14:28:50;;;;;;;;;18.67;16.67;;;;;36.36;33.35;100665.78;4886035;28;45223;-83
2023/09/07 14:31:43;;;;;;;;;18.00;18.00;;;;;35.42;34.08;100632.19;4886861;28;44761;-82
2023/09/07 14:37:30;;;;;;;;;16.67;15.00;;;;;34.29;35.13;100643.22;4895051;28;44999;-83
2023/09/07 14:40:10;;;;;;;;;17.67;16.00;;;;;34.30;36.31;100670.72;4886004;28;44933;-83
2023/09/07 14:54:43;;;;;;;;;18.33;18.00;;;;;33.48;37.65;100629.81;4874251;29;44942;-83
2023/09/07 14:57:09;;;;;;;;;19.00;19.00;;;;;33.47;38.29;100675.81;4892852;29;44852;-82
2023/09/07 15:00:07;;;;;;;;;16.33;16.33;;;;;33.55;37.88;100661.41;4850590;29;45052;-82
2023/09/07 15:03:40;;;;;;;;;;;;;;;;;;;;;
2023/09/07 15:05:37;;;;;;;;;21.67;21.00;;;;;33.08;37.90;100630.34;4884296;29;45005;-82
2023/09/07 15:11:35;;;;;;;;;12.33;11.33;;;;;33.16;37.25;100638.91;4901933;29;44986;-82
2023/09/07 15:14:05;;;;;;;;;18.00;16.67;;;;;33.22;37.56;100654.91;4883270;29;45074;-82
2023/09/07 15:21:51;;;;;;;;;12.33;12.33;;;;;33.34;36.09;100663.19;4801477;27;45310;-81
2023/09/07 15:24:26;;;;;;;;;15.67;15.00;;;;;33.17;36.43;100646.19;4822045;29;44877;-81
2023/09/07 15:27:07;;;;;;;;;15.67;15.67;;;;;33.21;36.79;100664.22;5049127;23;45264;-81
2023/09/07 15:35:25;;;;;;;;;9.00;9.00;;;;;33.31;33.57;100655.16;5112215;23;45476;-81
2023/09/07 15:37:51;;;;;;;;;7.67;6.33;;;;;33.10;33.79;100633.88;4845926;29;45072;-83
2023/09/07 15:40:16;;;;;;;;;6.00;6.00;;;;;33.15;32.76;100648.19;4850487;29;44826;-83
2023/09/07 15:42:45;;;;;;;;;5.33;5.33;;;;;33.23;33.24;100636.53;4836942;29;46622;-83
2023/09/07 15:45:16;;;;;;;;;4.33;4.33;;;;;33.28;32.95;100640.63;5337769;23;46905;-83
2023/09/07 15:48:42;;;;;;;;;;;;;;;;;;;;;
2023/09/07 15:51:33;;;;;;;;;7.00;7.00;;;;;33.46;32.68;100653.88;4897716;29;44906;-82
2023/09/07 15:54:12;;;;;;;;;6.00;6.00;;;;;33.12;33.59;100629.13;4911784;28;45326;-82
2023/09/07 15:56:58;;;;;;;;;5.67;5.00;;;;;33.08;32.71;100620.22;4913502;28;44865;-82
2023/09/07 16:03:03;;;;;;;;;;;;;;;;;;;;;
2023/09/07 16:17:12;;;;;;;;;6.00;5.00;;;;;33.48;32.10;100652.75;4961507;23;46510;-83
2023/09/07 16:19:41;;;;;;;;;6.00;5.00;;;;;33.28;32.17;100631.50;4899675;28;44929;-81
2023/09/07 16:22:29;;;;;;;;;;;;;;;;;;;;;
2023/09/07 16:25:02;;;;;;;;;4.00;4.00;;;;;33.54;32.21;100651.38;4892650;29;65190;-80
2023/09/07 16:27:28;;;;;;;;;5.00;5.00;;;;;33.42;31.99;100650.50;4880370;29;46396;-81
2023/09/07 16:29:57;;;;;;;;;6.00;6.00;;;;;33.57;31.89;100644.69;4903760;29;44812;-80
2023/09/07 16:32:23;;;;;;;;;7.00;6.00;;;;;33.43;31.97;100640.34;4902624;29;44720;-80
2023/09/07 16:34:49;;;;;;;;;8.67;7.00;;;;;33.45;31.69;100649.38;4899161;29;44967;-81
2023/09/07 16:37:14;;;;;;;;;5.67;5.67;;;;;33.50;31.50;100647.13;4884086;29;47380;-80
2023/09/07 16:39:41;;;;;;;;;5.33;5.33;;;;;33.54;31.84;100644.97;4867911;29;45317;-81
2023/09/07 16:42:09;;;;;;;;;5.67;5.67;;;;;33.58;32.26;100661.13;4879452;29;44859;-82
2023/09/07 16:44:35;;;;;;;;;3.00;3.00;;;;;33.44;31.57;100655.91;4897767;29;44815;-81